sensor_id;sensor_type;location;lat;lon;timestamp;temperature;humidity
22966;DHT22;11649;48.090;9.754;2022-10-31T00:01:18;10.20;99.90
22966;DHT22;11649;48.090;9.754;2022-10-31T00:03:46;10.30;99.90
22966;DHT22;11649;48.090;9.754;2022-10-31T00:06:14;10.10;99.90
22966;DHT22;11649;48.090;9.754;2022-10-31T00:08:41;10.00;99.90
22966;DHT22;11649;48.090;9.754;2022-10-31T00:11:11;10.80;99.90
22966;DHT22;11649;48.090;9.754;2022-10-31T00:13:38;10.70;99.90
22966;DHT22;11649;48.090;9.754;2022-10-31T00:16:05;10.10;99.90
22966;DHT22;11649;48.090;9.754;2022-10-31T00:18:32;10.30;99.90
22966;DHT22;11649;48.090;9.754;2022-10-31T00:21:02;10.80;99.90
22966;DHT22;11649;48.090;9.754;2022-10-31T00:23:29;10.10;99.90
22966;DHT22;11649;48.090;9.754;2022-10-31T00:26:03;10.00;99.90
22966;DHT22;11649;48.090;9.754;2022-10-31T00:28:30;10.00;99.90
22966;DHT22;11649;48.090;9.754;2022-10-31T00:31:02;10.20;99.90
22966;DHT22;11649;48.090;9.754;2022-10-31T00:33:29;10.10;99.90
22966;DHT22;11649;48.090;9.754;2022-10-31T00:35:56;10.00;99.90
22966;DHT22;11649;48.090;9.754;2022-10-31T00:38:23;10.10;99.90
22966;DHT22;11649;48.090;9.754;2022-10-31T00:40:49;10.00;99.90
22966;DHT22;11649;48.090;9.754;2022-10-31T00:43:16;10.00;99.90
22966;DHT22;11649;48.090;9.754;2022-10-31T00:45:43;10.20;99.90
22966;DHT22;11649;48.090;9.754;2022-10-31T00:48:11;10.60;99.90
22966;DHT22;11649;48.090;9.754;2022-10-31T00:50:38;10.00;99.90
22966;DHT22;11649;48.090;9.754;2022-10-31T00:53:05;9.90;99.90
22966;DHT22;11649;48.090;9.754;2022-10-31T00:55:32;10.50;99.90
22966;DHT22;11649;48.090;9.754;2022-10-31T00:57:59;10.20;99.90
22966;DHT22;11649;48.090;9.754;2022-10-31T01:00:27;10.10;99.90
22966;DHT22;11649;48.090;9.754;2022-10-31T01:02:53;10.00;99.90
22966;DHT22;11649;48.090;9.754;2022-10-31T01:05:20;10.00;99.90
22966;DHT22;11649;48.090;9.754;2022-10-31T01:07:47;10.10;99.90
22966;DHT22;11649;48.090;9.754;2022-10-31T01:10:14;10.90;99.90
22966;DHT22;11649;48.090;9.754;2022-10-31T01:12:44;11.00;99.90
22966;DHT22;11649;48.090;9.754;2022-10-31T01:15:13;10.10;99.90
22966;DHT22;11649;48.090;9.754;2022-10-31T01:17:40;10.00;99.90
22966;DHT22;11649;48.090;9.754;2022-10-31T01:20:08;9.70;99.90
22966;DHT22;11649;48.090;9.754;2022-10-31T01:22:36;9.90;99.90
22966;DHT22;11649;48.090;9.754;2022-10-31T01:25:02;9.90;99.90
22966;DHT22;11649;48.090;9.754;2022-10-31T01:27:31;10.10;99.90
22966;DHT22;11649;48.090;9.754;2022-10-31T01:29:58;10.10;99.90
22966;DHT22;11649;48.090;9.754;2022-10-31T01:32:24;10.60;99.90
22966;DHT22;11649;48.090;9.754;2022-10-31T01:34:51;10.50;99.90
22966;DHT22;11649;48.090;9.754;2022-10-31T01:37:18;9.90;99.90
22966;DHT22;11649;48.090;9.754;2022-10-31T01:39:45;9.90;99.90
22966;DHT22;11649;48.090;9.754;2022-10-31T01:42:21;9.90;99.90
22966;DHT22;11649;48.090;9.754;2022-10-31T01:44:57;10.10;99.90
22966;DHT22;11649;48.090;9.754;2022-10-31T01:47:34;10.10;99.90
22966;DHT22;11649;48.090;9.754;2022-10-31T01:50:05;9.90;99.90
22966;DHT22;11649;48.090;9.754;2022-10-31T01:52:37;10.00;99.90
22966;DHT22;11649;48.090;9.754;2022-10-31T01:55:13;10.00;99.90
22966;DHT22;11649;48.090;9.754;2022-10-31T01:57:45;10.10;99.90
22966;DHT22;11649;48.090;9.754;2022-10-31T02:00:13;10.30;99.90
22966;DHT22;11649;48.090;9.754;2022-10-31T02:02:41;10.10;99.90
22966;DHT22;11649;48.090;9.754;2022-10-31T02:05:12;10.70;99.90
22966;DHT22;11649;48.090;9.754;2022-10-31T02:07:52;10.40;99.90
22966;DHT22;11649;48.090;9.754;2022-10-31T02:10:21;10.00;99.90
22966;DHT22;11649;48.090;9.754;2022-10-31T02:12:51;9.90;99.90
22966;DHT22;11649;48.090;9.754;2022-10-31T02:15:19;10.10;99.90
22966;DHT22;11649;48.090;9.754;2022-10-31T02:17:46;9.80;99.90
22966;DHT22;11649;48.090;9.754;2022-10-31T02:20:23;9.90;99.90
22966;DHT22;11649;48.090;9.754;2022-10-31T02:28:21;9.80;99.90
22966;DHT22;11649;48.090;9.754;2022-10-31T02:31:19;9.70;99.90
22966;DHT22;11649;48.090;9.754;2022-10-31T02:34:01;9.70;99.90
22966;DHT22;11649;48.090;9.754;2022-10-31T02:36:43;9.60;99.90
22966;DHT22;11649;48.090;9.754;2022-10-31T02:39:53;9.60;99.90
22966;DHT22;11649;48.090;9.754;2022-10-31T02:42:32;9.60;99.90
22966;DHT22;11649;48.090;9.754;2022-10-31T02:45:08;9.60;99.90
22966;DHT22;11649;48.090;9.754;2022-10-31T02:47:38;9.50;99.90
22966;DHT22;11649;48.090;9.754;2022-10-31T02:50:28;9.50;99.90
22966;DHT22;11649;48.090;9.754;2022-10-31T02:52:57;9.40;99.90
22966;DHT22;11649;48.090;9.754;2022-10-31T02:57:57;9.40;99.90
22966;DHT22;11649;48.090;9.754;2022-10-31T03:00:25;9.90;99.90
22966;DHT22;11649;48.090;9.754;2022-10-31T03:03:10;9.50;99.90
22966;DHT22;11649;48.090;9.754;2022-10-31T03:05:53;9.70;99.90
22966;DHT22;11649;48.090;9.754;2022-10-31T03:08:34;9.60;99.90
22966;DHT22;11649;48.090;9.754;2022-10-31T03:11:04;9.70;99.90
22966;DHT22;11649;48.090;9.754;2022-10-31T03:16:25;9.80;99.90
22966;DHT22;11649;48.090;9.754;2022-10-31T03:19:34;9.90;99.90
22966;DHT22;11649;48.090;9.754;2022-10-31T03:22:14;9.80;99.90
22966;DHT22;11649;48.090;9.754;2022-10-31T03:24:43;9.60;99.90
22966;DHT22;11649;48.090;9.754;2022-10-31T03:27:13;9.90;99.90
22966;DHT22;11649;48.090;9.754;2022-10-31T03:29:42;9.60;99.90
22966;DHT22;11649;48.090;9.754;2022-10-31T03:32:24;9.50;99.90
22966;DHT22;11649;48.090;9.754;2022-10-31T03:34:56;9.60;99.90
22966;DHT22;11649;48.090;9.754;2022-10-31T03:37:25;9.70;99.90
22966;DHT22;11649;48.090;9.754;2022-10-31T03:39:55;9.70;99.90
22966;DHT22;11649;48.090;9.754;2022-10-31T03:42:27;9.60;99.90
22966;DHT22;11649;48.090;9.754;2022-10-31T03:45:28;9.40;99.90
22966;DHT22;11649;48.090;9.754;2022-10-31T03:47:54;9.50;99.90
22966;DHT22;11649;48.090;9.754;2022-10-31T03:50:24;9.20;99.90
22966;DHT22;11649;48.090;9.754;2022-10-31T03:55:40;9.40;99.90
22966;DHT22;11649;48.090;9.754;2022-10-31T03:58:12;9.40;99.90
22966;DHT22;11649;48.090;9.754;2022-10-31T04:00:44;9.30;99.90
22966;DHT22;11649;48.090;9.754;2022-10-31T04:03:44;9.50;99.90
22966;DHT22;11649;48.090;9.754;2022-10-31T04:06:14;9.70;99.90
22966;DHT22;11649;48.090;9.754;2022-10-31T04:08:46;9.70;99.90
22966;DHT22;11649;48.090;9.754;2022-10-31T04:11:15;9.60;99.90
22966;DHT22;11649;48.090;9.754;2022-10-31T04:13:43;9.70;99.90
22966;DHT22;11649;48.090;9.754;2022-10-31T04:16:12;10.10;99.90
22966;DHT22;11649;48.090;9.754;2022-10-31T04:18:43;9.50;99.90
22966;DHT22;11649;48.090;9.754;2022-10-31T04:21:09;9.50;99.90
22966;DHT22;11649;48.090;9.754;2022-10-31T04:23:36;9.60;99.90
22966;DHT22;11649;48.090;9.754;2022-10-31T04:26:03;9.50;99.90
22966;DHT22;11649;48.090;9.754;2022-10-31T04:28:30;9.50;99.90
22966;DHT22;11649;48.090;9.754;2022-10-31T04:30:57;10.00;99.90
22966;DHT22;11649;48.090;9.754;2022-10-31T04:33:24;9.30;99.90
22966;DHT22;11649;48.090;9.754;2022-10-31T04:35:51;9.30;99.90
22966;DHT22;11649;48.090;9.754;2022-10-31T04:38:18;9.30;99.90
22966;DHT22;11649;48.090;9.754;2022-10-31T04:40:45;9.30;99.90
22966;DHT22;11649;48.090;9.754;2022-10-31T04:43:12;9.10;99.90
22966;DHT22;11649;48.090;9.754;2022-10-31T04:45:39;9.80;99.90
22966;DHT22;11649;48.090;9.754;2022-10-31T04:48:06;9.20;99.90
22966;DHT22;11649;48.090;9.754;2022-10-31T04:50:32;9.40;99.90
22966;DHT22;11649;48.090;9.754;2022-10-31T04:52:59;9.00;99.90
22966;DHT22;11649;48.090;9.754;2022-10-31T04:55:26;8.90;99.90
22966;DHT22;11649;48.090;9.754;2022-10-31T04:57:53;9.70;99.90
22966;DHT22;11649;48.090;9.754;2022-10-31T05:00:21;9.00;99.90
22966;DHT22;11649;48.090;9.754;2022-10-31T05:02:48;9.20;99.90
22966;DHT22;11649;48.090;9.754;2022-10-31T05:05:18;9.30;99.90
22966;DHT22;11649;48.090;9.754;2022-10-31T05:07:46;9.20;99.90
22966;DHT22;11649;48.090;9.754;2022-10-31T05:10:19;9.10;99.90
22966;DHT22;11649;48.090;9.754;2022-10-31T05:12:58;9.20;99.90
22966;DHT22;11649;48.090;9.754;2022-10-31T05:15:27;9.20;99.90
22966;DHT22;11649;48.090;9.754;2022-10-31T05:17:54;9.30;99.90
22966;DHT22;11649;48.090;9.754;2022-10-31T05:20:24;9.10;99.90
22966;DHT22;11649;48.090;9.754;2022-10-31T05:22:53;9.10;99.90
22966;DHT22;11649;48.090;9.754;2022-10-31T05:25:22;10.20;99.90
22966;DHT22;11649;48.090;9.754;2022-10-31T05:27:50;9.10;99.90
22966;DHT22;11649;48.090;9.754;2022-10-31T05:30:26;9.80;99.90
22966;DHT22;11649;48.090;9.754;2022-10-31T05:32:53;9.20;99.90
22966;DHT22;11649;48.090;9.754;2022-10-31T05:35:31;9.00;99.90
22966;DHT22;11649;48.090;9.754;2022-10-31T05:37:58;9.00;99.90
22966;DHT22;11649;48.090;9.754;2022-10-31T05:40:26;9.10;99.90
22966;DHT22;11649;48.090;9.754;2022-10-31T05:42:54;9.00;99.90
22966;DHT22;11649;48.090;9.754;2022-10-31T05:45:22;9.20;99.90
22966;DHT22;11649;48.090;9.754;2022-10-31T05:47:57;9.20;99.90
22966;DHT22;11649;48.090;9.754;2022-10-31T05:50:27;9.20;99.90
22966;DHT22;11649;48.090;9.754;2022-10-31T05:52:59;9.20;99.90
22966;DHT22;11649;48.090;9.754;2022-10-31T05:55:27;8.50;99.90
22966;DHT22;11649;48.090;9.754;2022-10-31T05:57:54;8.70;99.90
22966;DHT22;11649;48.090;9.754;2022-10-31T06:00:21;8.90;99.90
22966;DHT22;11649;48.090;9.754;2022-10-31T06:02:49;8.80;99.90
22966;DHT22;11649;48.090;9.754;2022-10-31T06:05:16;8.50;99.90
22966;DHT22;11649;48.090;9.754;2022-10-31T06:07:43;8.40;99.90
22966;DHT22;11649;48.090;9.754;2022-10-31T06:10:10;8.40;99.90
22966;DHT22;11649;48.090;9.754;2022-10-31T06:12:37;8.70;99.90
22966;DHT22;11649;48.090;9.754;2022-10-31T06:15:08;8.70;99.90
22966;DHT22;11649;48.090;9.754;2022-10-31T06:17:35;9.00;99.90
22966;DHT22;11649;48.090;9.754;2022-10-31T06:20:03;9.10;99.90
22966;DHT22;11649;48.090;9.754;2022-10-31T06:22:30;9.20;99.90
22966;DHT22;11649;48.090;9.754;2022-10-31T06:24:57;9.10;99.90
22966;DHT22;11649;48.090;9.754;2022-10-31T06:27:24;8.90;99.90
22966;DHT22;11649;48.090;9.754;2022-10-31T06:29:51;9.80;99.90
22966;DHT22;11649;48.090;9.754;2022-10-31T06:32:18;9.10;99.90
22966;DHT22;11649;48.090;9.754;2022-10-31T06:34:45;9.30;99.90
22966;DHT22;11649;48.090;9.754;2022-10-31T06:37:15;9.70;99.90
22966;DHT22;11649;48.090;9.754;2022-10-31T06:39:42;9.20;99.90
22966;DHT22;11649;48.090;9.754;2022-10-31T06:42:09;9.60;99.90
22966;DHT22;11649;48.090;9.754;2022-10-31T06:44:36;9.20;99.90
22966;DHT22;11649;48.090;9.754;2022-10-31T06:47:02;9.60;99.90
22966;DHT22;11649;48.090;9.754;2022-10-31T06:49:29;9.60;99.90
22966;DHT22;11649;48.090;9.754;2022-10-31T06:51:56;9.60;99.90
22966;DHT22;11649;48.090;9.754;2022-10-31T06:54:22;9.80;99.90
22966;DHT22;11649;48.090;9.754;2022-10-31T06:56:49;10.30;99.90
22966;DHT22;11649;48.090;9.754;2022-10-31T06:59:16;9.60;99.90
22966;DHT22;11649;48.090;9.754;2022-10-31T07:01:43;9.80;99.90
22966;DHT22;11649;48.090;9.754;2022-10-31T07:04:10;9.60;99.90
22966;DHT22;11649;48.090;9.754;2022-10-31T07:06:38;9.80;99.90
22966;DHT22;11649;48.090;9.754;2022-10-31T07:09:05;9.90;99.90
22966;DHT22;11649;48.090;9.754;2022-10-31T07:11:32;10.00;99.90
22966;DHT22;11649;48.090;9.754;2022-10-31T07:13:58;9.60;99.90
22966;DHT22;11649;48.090;9.754;2022-10-31T07:16:25;9.70;99.90
22966;DHT22;11649;48.090;9.754;2022-10-31T07:18:52;9.60;99.90
22966;DHT22;11649;48.090;9.754;2022-10-31T07:21:19;9.40;99.90
22966;DHT22;11649;48.090;9.754;2022-10-31T07:23:49;9.60;99.90
22966;DHT22;11649;48.090;9.754;2022-10-31T07:26:16;9.40;99.90
22966;DHT22;11649;48.090;9.754;2022-10-31T07:28:42;9.70;99.90
22966;DHT22;11649;48.090;9.754;2022-10-31T07:31:09;10.30;99.90
22966;DHT22;11649;48.090;9.754;2022-10-31T07:33:36;10.40;99.90
22966;DHT22;11649;48.090;9.754;2022-10-31T07:36:03;10.00;99.90
22966;DHT22;11649;48.090;9.754;2022-10-31T07:38:30;10.00;99.90
22966;DHT22;11649;48.090;9.754;2022-10-31T07:40:56;10.40;99.90
22966;DHT22;11649;48.090;9.754;2022-10-31T07:43:23;10.20;99.90
22966;DHT22;11649;48.090;9.754;2022-10-31T07:45:51;9.90;99.90
22966;DHT22;11649;48.090;9.754;2022-10-31T07:48:19;10.00;99.90
22966;DHT22;11649;48.090;9.754;2022-10-31T07:50:46;10.50;99.90
22966;DHT22;11649;48.090;9.754;2022-10-31T07:53:14;10.70;99.90
22966;DHT22;11649;48.090;9.754;2022-10-31T07:55:41;10.50;99.90
22966;DHT22;11649;48.090;9.754;2022-10-31T07:58:10;10.20;99.90
22966;DHT22;11649;48.090;9.754;2022-10-31T08:00:39;10.20;99.90
22966;DHT22;11649;48.090;9.754;2022-10-31T08:03:11;10.80;99.90
22966;DHT22;11649;48.090;9.754;2022-10-31T08:05:39;10.60;99.90
22966;DHT22;11649;48.090;9.754;2022-10-31T08:08:08;11.10;99.90
22966;DHT22;11649;48.090;9.754;2022-10-31T08:10:36;10.80;99.90
22966;DHT22;11649;48.090;9.754;2022-10-31T08:13:06;10.90;99.90
22966;DHT22;11649;48.090;9.754;2022-10-31T08:15:34;10.40;99.90
22966;DHT22;11649;48.090;9.754;2022-10-31T08:18:05;10.50;99.90
22966;DHT22;11649;48.090;9.754;2022-10-31T08:20:32;10.90;99.90
22966;DHT22;11649;48.090;9.754;2022-10-31T08:23:00;10.50;99.90
22966;DHT22;11649;48.090;9.754;2022-10-31T08:25:29;10.40;99.90
22966;DHT22;11649;48.090;9.754;2022-10-31T08:28:04;10.50;99.90
22966;DHT22;11649;48.090;9.754;2022-10-31T08:30:33;10.60;99.90
22966;DHT22;11649;48.090;9.754;2022-10-31T08:33:12;10.70;99.90
22966;DHT22;11649;48.090;9.754;2022-10-31T08:35:39;11.00;99.90
22966;DHT22;11649;48.090;9.754;2022-10-31T08:38:08;11.20;99.90
22966;DHT22;11649;48.090;9.754;2022-10-31T08:40:36;11.20;99.90
22966;DHT22;11649;48.090;9.754;2022-10-31T08:43:12;11.30;99.90
22966;DHT22;11649;48.090;9.754;2022-10-31T08:45:39;11.30;99.90
22966;DHT22;11649;48.090;9.754;2022-10-31T08:48:10;11.80;99.90
22966;DHT22;11649;48.090;9.754;2022-10-31T08:50:37;11.70;99.90
22966;DHT22;11649;48.090;9.754;2022-10-31T08:53:07;11.70;99.90
22966;DHT22;11649;48.090;9.754;2022-10-31T08:55:36;12.30;99.90
22966;DHT22;11649;48.090;9.754;2022-10-31T08:58:05;12.60;99.90
22966;DHT22;11649;48.090;9.754;2022-10-31T09:00:33;12.50;99.90
22966;DHT22;11649;48.090;9.754;2022-10-31T09:03:06;12.20;99.90
22966;DHT22;11649;48.090;9.754;2022-10-31T09:05:34;12.30;99.90
22966;DHT22;11649;48.090;9.754;2022-10-31T09:08:03;12.40;99.90
22966;DHT22;11649;48.090;9.754;2022-10-31T09:10:32;12.40;99.90
22966;DHT22;11649;48.090;9.754;2022-10-31T09:13:01;12.60;99.90
22966;DHT22;11649;48.090;9.754;2022-10-31T09:15:28;13.30;99.90
22966;DHT22;11649;48.090;9.754;2022-10-31T09:17:55;12.50;99.90
22966;DHT22;11649;48.090;9.754;2022-10-31T09:20:22;12.60;99.90
22966;DHT22;11649;48.090;9.754;2022-10-31T09:22:58;12.90;99.90
22966;DHT22;11649;48.090;9.754;2022-10-31T09:25:26;13.10;99.90
22966;DHT22;11649;48.090;9.754;2022-10-31T09:28:00;12.90;99.90
22966;DHT22;11649;48.090;9.754;2022-10-31T09:30:29;13.10;99.90
22966;DHT22;11649;48.090;9.754;2022-10-31T09:33:02;13.20;99.90
22966;DHT22;11649;48.090;9.754;2022-10-31T09:35:29;13.40;99.90
22966;DHT22;11649;48.090;9.754;2022-10-31T09:38:04;13.70;99.90
22966;DHT22;11649;48.090;9.754;2022-10-31T09:51:00;14.30;99.90
22966;DHT22;11649;48.090;9.754;2022-10-31T09:56:22;14.40;99.90
22966;DHT22;11649;48.090;9.754;2022-10-31T09:58:55;14.50;99.90
22966;DHT22;11649;48.090;9.754;2022-10-31T10:01:59;14.80;99.90
22966;DHT22;11649;48.090;9.754;2022-10-31T10:05:02;14.70;99.90
22966;DHT22;11649;48.090;9.754;2022-10-31T10:07:59;14.80;99.90
22966;DHT22;11649;48.090;9.754;2022-10-31T10:10:55;14.90;99.90
22966;DHT22;11649;48.090;9.754;2022-10-31T10:24:03;15.10;99.90
22966;DHT22;11649;48.090;9.754;2022-10-31T10:26:40;15.40;99.90
22966;DHT22;11649;48.090;9.754;2022-10-31T10:29:31;15.50;99.90
22966;DHT22;11649;48.090;9.754;2022-10-31T10:32:02;15.70;99.90
22966;DHT22;11649;48.090;9.754;2022-10-31T10:34:44;15.70;99.90
22966;DHT22;11649;48.090;9.754;2022-10-31T10:37:23;15.90;99.90
22966;DHT22;11649;48.090;9.754;2022-10-31T10:39:55;16.00;99.90
22966;DHT22;11649;48.090;9.754;2022-10-31T10:42:25;16.20;99.90
22966;DHT22;11649;48.090;9.754;2022-10-31T10:45:17;16.30;99.90
22966;DHT22;11649;48.090;9.754;2022-10-31T10:48:22;16.20;99.90
22966;DHT22;11649;48.090;9.754;2022-10-31T10:50:53;16.10;99.90
22966;DHT22;11649;48.090;9.754;2022-10-31T10:56:30;16.50;99.90
22966;DHT22;11649;48.090;9.754;2022-10-31T10:58:58;16.80;99.90
22966;DHT22;11649;48.090;9.754;2022-10-31T11:01:25;17.50;99.90
22966;DHT22;11649;48.090;9.754;2022-10-31T11:03:52;17.40;99.90
22966;DHT22;11649;48.090;9.754;2022-10-31T11:06:21;17.60;99.90
22966;DHT22;11649;48.090;9.754;2022-10-31T11:08:52;17.50;99.90
22966;DHT22;11649;48.090;9.754;2022-10-31T11:11:24;17.60;99.90
22966;DHT22;11649;48.090;9.754;2022-10-31T11:14:12;17.50;99.90
22966;DHT22;11649;48.090;9.754;2022-10-31T11:16:43;17.30;99.90
22966;DHT22;11649;48.090;9.754;2022-10-31T11:19:17;17.30;99.90
22966;DHT22;11649;48.090;9.754;2022-10-31T11:21:48;17.30;99.90
22966;DHT22;11649;48.090;9.754;2022-10-31T11:24:21;17.40;99.90
22966;DHT22;11649;48.090;9.754;2022-10-31T11:26:49;17.60;99.90
22966;DHT22;11649;48.090;9.754;2022-10-31T11:29:21;17.60;99.90
22966;DHT22;11649;48.090;9.754;2022-10-31T11:31:52;17.70;99.90
22966;DHT22;11649;48.090;9.754;2022-10-31T11:34:42;17.60;99.90
22966;DHT22;11649;48.090;9.754;2022-10-31T11:37:15;17.60;99.90
22966;DHT22;11649;48.090;9.754;2022-10-31T11:39:46;17.60;99.90
22966;DHT22;11649;48.090;9.754;2022-10-31T11:42:25;17.70;99.90
22966;DHT22;11649;48.090;9.754;2022-10-31T11:44:54;17.60;99.90
22966;DHT22;11649;48.090;9.754;2022-10-31T11:47:29;17.60;99.90
22966;DHT22;11649;48.090;9.754;2022-10-31T11:50:02;17.60;99.90
22966;DHT22;11649;48.090;9.754;2022-10-31T11:52:37;17.60;99.90
22966;DHT22;11649;48.090;9.754;2022-10-31T11:57:47;17.50;99.90
22966;DHT22;11649;48.090;9.754;2022-10-31T12:00:26;17.60;99.90
22966;DHT22;11649;48.090;9.754;2022-10-31T12:05:58;17.50;99.90
22966;DHT22;11649;48.090;9.754;2022-10-31T12:08:30;17.40;99.90
22966;DHT22;11649;48.090;9.754;2022-10-31T12:17:25;17.00;99.90
22966;DHT22;11649;48.090;9.754;2022-10-31T12:23:04;16.90;99.90
22966;DHT22;11649;48.090;9.754;2022-10-31T12:45:04;16.80;99.90
22966;DHT22;11649;48.090;9.754;2022-10-31T12:47:59;16.80;99.90
22966;DHT22;11649;48.090;9.754;2022-10-31T12:50:58;16.80;99.90
22966;DHT22;11649;48.090;9.754;2022-10-31T12:53:38;16.80;99.90
22966;DHT22;11649;48.090;9.754;2022-10-31T13:01:16;16.90;99.90
22966;DHT22;11649;48.090;9.754;2022-10-31T13:03:58;17.00;99.90
22966;DHT22;11649;48.090;9.754;2022-10-31T13:06:31;17.10;99.90
22966;DHT22;11649;48.090;9.754;2022-10-31T13:09:10;17.10;99.90
22966;DHT22;11649;48.090;9.754;2022-10-31T13:11:45;17.20;99.90
22966;DHT22;11649;48.090;9.754;2022-10-31T13:14:41;17.30;99.90
22966;DHT22;11649;48.090;9.754;2022-10-31T13:17:31;17.40;99.90
22966;DHT22;11649;48.090;9.754;2022-10-31T13:20:28;17.40;99.90
22966;DHT22;11649;48.090;9.754;2022-10-31T13:26:06;17.70;99.90
22966;DHT22;11649;48.090;9.754;2022-10-31T13:28:43;17.70;99.90
22966;DHT22;11649;48.090;9.754;2022-10-31T13:31:13;17.70;99.90
22966;DHT22;11649;48.090;9.754;2022-10-31T13:33:47;17.70;99.90
22966;DHT22;11649;48.090;9.754;2022-10-31T13:36:31;17.80;99.90
22966;DHT22;11649;48.090;9.754;2022-10-31T13:39:25;18.40;99.90
22966;DHT22;11649;48.090;9.754;2022-10-31T13:42:12;19.30;99.90
22966;DHT22;11649;48.090;9.754;2022-10-31T13:44:40;19.90;99.90
22966;DHT22;11649;48.090;9.754;2022-10-31T13:47:23;20.50;99.90
22966;DHT22;11649;48.090;9.754;2022-10-31T13:49:50;20.90;99.90
22966;DHT22;11649;48.090;9.754;2022-10-31T13:52:26;20.50;99.90
22966;DHT22;11649;48.090;9.754;2022-10-31T13:54:54;20.00;99.90
22966;DHT22;11649;48.090;9.754;2022-10-31T13:57:42;19.90;99.90
22966;DHT22;11649;48.090;9.754;2022-10-31T14:02:37;19.60;99.90
22966;DHT22;11649;48.090;9.754;2022-10-31T14:05:14;19.50;99.90
22966;DHT22;11649;48.090;9.754;2022-10-31T14:07:45;19.30;99.90
22966;DHT22;11649;48.090;9.754;2022-10-31T14:10:33;19.20;99.90
22966;DHT22;11649;48.090;9.754;2022-10-31T14:13:14;19.10;99.90
22966;DHT22;11649;48.090;9.754;2022-10-31T14:15:56;19.30;99.90
22966;DHT22;11649;48.090;9.754;2022-10-31T14:18:33;19.40;99.90
22966;DHT22;11649;48.090;9.754;2022-10-31T14:21:01;19.20;99.90
22966;DHT22;11649;48.090;9.754;2022-10-31T14:28:54;19.20;99.90
22966;DHT22;11649;48.090;9.754;2022-10-31T14:33:52;19.20;99.90
22966;DHT22;11649;48.090;9.754;2022-10-31T14:36:28;19.10;99.90
22966;DHT22;11649;48.090;9.754;2022-10-31T14:39:25;18.80;99.90
22966;DHT22;11649;48.090;9.754;2022-10-31T14:42:06;18.70;99.90
22966;DHT22;11649;48.090;9.754;2022-10-31T14:50:17;18.50;99.90
22966;DHT22;11649;48.090;9.754;2022-10-31T14:52:50;18.30;99.90
22966;DHT22;11649;48.090;9.754;2022-10-31T14:55:18;18.00;99.90
22966;DHT22;11649;48.090;9.754;2022-10-31T14:57:56;17.80;99.90
22966;DHT22;11649;48.090;9.754;2022-10-31T15:00:24;17.60;99.90
22966;DHT22;11649;48.090;9.754;2022-10-31T15:03:13;17.40;99.90
22966;DHT22;11649;48.090;9.754;2022-10-31T15:05:52;17.30;99.90
22966;DHT22;11649;48.090;9.754;2022-10-31T15:08:37;17.20;99.90
22966;DHT22;11649;48.090;9.754;2022-10-31T15:11:13;17.20;99.90
22966;DHT22;11649;48.090;9.754;2022-10-31T15:13:45;17.10;99.90
22966;DHT22;11649;48.090;9.754;2022-10-31T15:16:15;17.00;99.90
22966;DHT22;11649;48.090;9.754;2022-10-31T15:18:58;17.00;99.90
22966;DHT22;11649;48.090;9.754;2022-10-31T15:21:27;17.00;99.90
22966;DHT22;11649;48.090;9.754;2022-10-31T15:23:56;16.90;99.90
22966;DHT22;11649;48.090;9.754;2022-10-31T15:26:29;16.80;99.90
22966;DHT22;11649;48.090;9.754;2022-10-31T15:29:03;16.70;99.90
22966;DHT22;11649;48.090;9.754;2022-10-31T15:31:31;16.60;99.90
22966;DHT22;11649;48.090;9.754;2022-10-31T15:34:11;16.60;99.90
22966;DHT22;11649;48.090;9.754;2022-10-31T15:36:41;16.50;99.90
22966;DHT22;11649;48.090;9.754;2022-10-31T15:39:11;16.40;99.90
22966;DHT22;11649;48.090;9.754;2022-10-31T15:44:26;16.10;99.90
22966;DHT22;11649;48.090;9.754;2022-10-31T15:47:13;16.10;99.90
22966;DHT22;11649;48.090;9.754;2022-10-31T15:49:54;15.90;99.90
22966;DHT22;11649;48.090;9.754;2022-10-31T15:52:41;16.10;99.90
22966;DHT22;11649;48.090;9.754;2022-10-31T15:55:20;15.60;99.90
22966;DHT22;11649;48.090;9.754;2022-10-31T15:57:56;15.50;99.90
22966;DHT22;11649;48.090;9.754;2022-10-31T16:00:33;15.30;99.90
22966;DHT22;11649;48.090;9.754;2022-10-31T16:03:21;15.20;99.90
22966;DHT22;11649;48.090;9.754;2022-10-31T16:05:54;15.00;99.90
22966;DHT22;11649;48.090;9.754;2022-10-31T16:13:36;14.60;99.90
22966;DHT22;11649;48.090;9.754;2022-10-31T16:16:13;14.50;99.90
22966;DHT22;11649;48.090;9.754;2022-10-31T16:19:02;14.40;99.90
22966;DHT22;11649;48.090;9.754;2022-10-31T16:21:34;14.30;99.90
22966;DHT22;11649;48.090;9.754;2022-10-31T16:24:11;14.20;99.90
22966;DHT22;11649;48.090;9.754;2022-10-31T16:26:41;14.20;99.90
22966;DHT22;11649;48.090;9.754;2022-10-31T16:29:25;14.10;99.90
22966;DHT22;11649;48.090;9.754;2022-10-31T16:31:52;14.00;99.90
22966;DHT22;11649;48.090;9.754;2022-10-31T16:34:22;14.00;99.90
22966;DHT22;11649;48.090;9.754;2022-10-31T16:36:53;13.80;99.90
22966;DHT22;11649;48.090;9.754;2022-10-31T16:39:20;14.60;99.90
22966;DHT22;11649;48.090;9.754;2022-10-31T16:41:50;13.70;99.90
22966;DHT22;11649;48.090;9.754;2022-10-31T16:44:22;13.90;99.90
22966;DHT22;11649;48.090;9.754;2022-10-31T16:47:13;13.50;99.90
22966;DHT22;11649;48.090;9.754;2022-10-31T16:49:46;13.50;99.90
22966;DHT22;11649;48.090;9.754;2022-10-31T16:52:13;13.50;99.90
22966;DHT22;11649;48.090;9.754;2022-10-31T16:54:40;13.70;99.90
22966;DHT22;11649;48.090;9.754;2022-10-31T16:57:13;13.70;99.90
22966;DHT22;11649;48.090;9.754;2022-10-31T16:59:41;13.60;99.90
22966;DHT22;11649;48.090;9.754;2022-10-31T17:02:15;14.40;99.90
22966;DHT22;11649;48.090;9.754;2022-10-31T17:04:42;13.60;99.90
22966;DHT22;11649;48.090;9.754;2022-10-31T17:07:09;13.20;99.90
22966;DHT22;11649;48.090;9.754;2022-10-31T17:09:35;13.50;99.90
22966;DHT22;11649;48.090;9.754;2022-10-31T17:12:04;13.40;99.90
22966;DHT22;11649;48.090;9.754;2022-10-31T17:14:32;13.10;99.90
22966;DHT22;11649;48.090;9.754;2022-10-31T17:17:00;13.20;99.90
22966;DHT22;11649;48.090;9.754;2022-10-31T17:19:27;13.10;99.90
22966;DHT22;11649;48.090;9.754;2022-10-31T17:21:53;13.10;99.90
22966;DHT22;11649;48.090;9.754;2022-10-31T17:24:20;13.10;99.90
22966;DHT22;11649;48.090;9.754;2022-10-31T17:26:47;12.70;99.90
22966;DHT22;11649;48.090;9.754;2022-10-31T17:29:14;12.70;99.90
22966;DHT22;11649;48.090;9.754;2022-10-31T17:31:41;12.80;99.90
22966;DHT22;11649;48.090;9.754;2022-10-31T17:34:08;12.80;99.90
22966;DHT22;11649;48.090;9.754;2022-10-31T17:36:35;13.00;99.90
22966;DHT22;11649;48.090;9.754;2022-10-31T17:39:02;12.70;99.90
22966;DHT22;11649;48.090;9.754;2022-10-31T17:41:31;12.40;99.90
22966;DHT22;11649;48.090;9.754;2022-10-31T17:43:58;12.40;99.90
22966;DHT22;11649;48.090;9.754;2022-10-31T17:46:25;12.50;99.90
22966;DHT22;11649;48.090;9.754;2022-10-31T17:48:53;12.20;99.90
22966;DHT22;11649;48.090;9.754;2022-10-31T17:51:20;12.60;99.90
22966;DHT22;11649;48.090;9.754;2022-10-31T17:53:47;13.00;99.90